createdAt,value
2019-03-10T01:37:03.728Z,78.00
2019-03-10T01:37:53.011Z,79.40
2019-03-10T01:38:41.953Z,80.00
2019-03-10T01:39:31.063Z,79.10
2019-03-10T01:40:19.751Z,79.10
2019-03-10T01:41:08.902Z,79.20
2019-03-10T01:41:57.913Z,78.30
2019-03-10T01:42:47.865Z,78.50
2019-03-10T01:43:36.523Z,80.30
2019-03-10T01:44:25.624Z,79.70
2019-03-10T01:45:14.760Z,79.20
2019-03-10T01:46:04.256Z,79.40
2019-03-10T01:46:53.527Z,78.60
2019-03-10T01:47:43.241Z,79.00
2019-03-10T01:48:32.418Z,81.30
2019-03-10T01:49:21.406Z,82.90
2019-03-10T01:50:09.921Z,78.70
2019-03-10T01:50:58.912Z,79.80
2019-03-10T01:51:47.822Z,78.10
2019-03-10T01:52:37.090Z,78.20
2019-03-10T01:53:26.283Z,77.60
2019-03-10T01:54:14.932Z,77.40
2019-03-10T01:55:03.767Z,79.40
2019-03-10T01:55:52.927Z,80.30
2019-03-10T01:56:42.160Z,80.50
2019-03-10T01:57:30.890Z,78.30
2019-03-10T01:58:19.645Z,79.40
2019-03-10T01:59:08.780Z,77.70
2019-03-10T01:59:57.399Z,77.70
2019-03-10T02:00:46.239Z,78.60
2019-03-10T02:01:35.092Z,79.60
2019-03-10T02:02:25.914Z,78.90
2019-03-10T02:03:14.966Z,79.00
2019-03-10T02:04:03.715Z,80.00
2019-03-10T02:04:52.778Z,78.70
2019-03-10T02:05:41.871Z,80.70
2019-03-10T02:06:31.173Z,79.70
2019-03-10T02:07:19.914Z,78.00
2019-03-10T02:08:08.865Z,78.20
2019-03-10T02:08:58.203Z,77.80
2019-03-10T02:09:47.164Z,79.80
2019-03-10T02:10:36.401Z,78.10
2019-03-10T02:11:25.865Z,77.50
2019-03-10T02:12:16.219Z,76.60
2019-03-10T02:14:07.135Z,78.90
2019-03-10T02:14:56.515Z,77.10
2019-03-10T02:15:45.209Z,78.70
2019-03-10T02:17:35.813Z,76.70
2019-03-10T02:18:24.826Z,75.40
2019-03-10T02:19:14.120Z,76.70
2019-03-10T02:20:03.126Z,78.30
2019-03-10T02:20:52.013Z,77.50
2019-03-10T02:21:41.513Z,76.80
2019-03-10T02:22:30.198Z,77.50
2019-03-10T02:23:18.874Z,75.80
2019-03-10T02:24:07.524Z,76.20
2019-03-10T02:24:56.241Z,76.40
2019-03-10T02:25:44.818Z,78.10
2019-03-10T02:26:33.393Z,78.80
2019-03-10T02:27:22.175Z,78.60
2019-03-10T02:28:10.857Z,77.40
2019-03-10T02:28:59.517Z,76.70
2019-03-10T02:29:48.254Z,77.00
2019-03-10T02:30:37.148Z,76.20
2019-03-10T02:31:27.879Z,77.00
2019-03-10T02:32:16.462Z,75.40
2019-03-10T02:33:05.244Z,76.70
2019-03-10T02:33:53.920Z,76.60
2019-03-10T02:34:42.602Z,76.60
2019-03-10T02:35:31.535Z,75.50
2019-03-10T02:36:20.585Z,76.20
2019-03-10T02:37:09.242Z,75.20
2019-03-10T02:37:57.820Z,76.60
2019-03-10T02:38:46.415Z,75.90
2019-03-10T02:39:35.244Z,75.70
2019-03-10T02:40:23.863Z,74.20
2019-03-10T02:41:12.839Z,75.30
2019-03-10T02:42:01.405Z,76.30
2019-03-10T02:42:50.133Z,75.90
2019-03-10T02:43:38.803Z,75.70
2019-03-10T02:44:27.753Z,77.40
2019-03-10T02:45:16.505Z,77.50
2019-03-10T02:46:05.248Z,76.00
2019-03-10T02:46:53.983Z,75.50
2019-03-10T02:47:42.630Z,75.20
2019-03-10T02:48:31.535Z,74.40
2019-03-10T02:49:20.538Z,74.80
2019-03-10T02:50:09.173Z,75.80
2019-03-10T02:50:57.840Z,75.90
2019-03-10T02:51:46.582Z,73.30
2019-03-10T02:52:36.559Z,73.60
2019-03-10T02:53:25.206Z,74.90
2019-03-10T02:54:13.962Z,75.10
2019-03-10T02:55:02.491Z,74.70
2019-03-10T02:55:51.424Z,74.70
2019-03-10T02:56:40.442Z,74.70
2019-03-10T02:57:29.436Z,75.20
2019-03-10T02:58:18.434Z,75.20
2019-03-10T02:59:07.000Z,73.50
2019-03-10T02:59:55.895Z,75.40
2019-03-10T03:00:46.512Z,73.40
2019-03-10T03:01:35.203Z,74.30
2019-03-10T03:02:24.194Z,73.10
2019-03-10T03:03:13.720Z,73.00
2019-03-10T03:04:02.439Z,73.10
2019-03-10T03:04:51.212Z,74.20
2019-03-10T03:05:39.801Z,74.20
2019-03-10T03:06:28.460Z,73.40
2019-03-10T03:07:17.223Z,72.60
2019-03-10T03:08:05.776Z,72.60
2019-03-10T03:08:54.698Z,73.80
2019-03-10T03:09:43.688Z,73.20
2019-03-10T03:10:32.246Z,73.60
2019-03-10T03:11:20.753Z,73.80
2019-03-10T03:12:09.577Z,71.60
2019-03-10T03:12:58.219Z,73.20
2019-03-10T03:13:46.882Z,71.80
2019-03-10T03:14:36.242Z,72.20
2019-03-10T03:15:24.926Z,72.40
2019-03-10T03:16:13.926Z,73.50
2019-03-10T03:17:05.516Z,71.60
2019-03-10T03:17:54.696Z,71.70
2019-03-10T03:18:43.520Z,71.90
2019-03-10T03:19:32.181Z,71.60
2019-03-10T03:20:21.441Z,70.60
2019-03-10T03:21:10.211Z,72.10
2019-03-10T03:21:59.125Z,71.10
2019-03-10T03:22:47.835Z,71.20
2019-03-10T03:23:36.486Z,72.00
2019-03-10T03:24:25.472Z,72.50
2019-03-10T03:25:14.166Z,71.70
2019-03-10T03:26:03.164Z,72.20
2019-03-10T03:26:51.913Z,71.20
2019-03-10T03:27:40.679Z,72.30
2019-03-10T03:28:29.616Z,71.30
2019-03-10T03:29:19.537Z,71.00
2019-03-10T03:30:08.476Z,71.20
2019-03-10T03:30:57.437Z,71.50
2019-03-10T03:31:47.610Z,70.20
2019-03-10T03:32:36.798Z,71.10
2019-03-10T03:33:25.415Z,71.30
2019-03-10T03:34:13.774Z,71.30
2019-03-10T03:35:02.647Z,69.10
2019-03-10T03:35:51.781Z,69.90
2019-03-10T03:36:40.546Z,71.00
2019-03-10T03:37:29.736Z,69.60
2019-03-10T03:38:18.756Z,70.00
2019-03-10T03:39:07.489Z,69.20
2019-03-10T03:39:56.124Z,70.00
2019-03-10T03:40:44.838Z,70.30
2019-03-10T03:41:33.493Z,71.60
2019-03-10T03:42:22.482Z,69.70
2019-03-10T03:43:11.557Z,68.90
2019-03-10T03:44:00.445Z,68.60
2019-03-10T03:44:49.102Z,68.60
2019-03-10T03:45:37.917Z,69.50
2019-03-10T03:46:26.676Z,71.20
2019-03-10T03:47:15.594Z,70.20
2019-03-10T03:48:04.244Z,69.90
2019-03-10T03:48:53.220Z,70.40
2019-03-10T03:49:41.872Z,71.70
2019-03-10T03:50:30.519Z,70.40
2019-03-10T03:51:19.566Z,71.00
2019-03-10T03:52:08.218Z,70.30
2019-03-10T03:52:57.030Z,70.10
2019-03-10T03:53:45.559Z,71.30
2019-03-10T03:54:34.843Z,70.10
2019-03-10T03:55:23.566Z,69.50
2019-03-10T03:56:12.566Z,70.10
2019-03-10T03:57:01.724Z,67.80
2019-03-10T03:57:51.096Z,69.40
2019-03-10T03:58:39.959Z,69.80
2019-03-10T03:59:28.539Z,69.00
2019-03-10T04:00:17.655Z,69.30
2019-03-10T04:01:06.162Z,68.60
2019-03-10T04:01:54.949Z,69.20
2019-03-10T04:02:43.718Z,69.00
2019-03-10T04:03:32.750Z,68.00
2019-03-10T04:04:21.428Z,69.10
2019-03-10T04:05:10.219Z,69.50
2019-03-10T04:05:59.098Z,67.40
2019-03-10T04:06:47.871Z,69.70
2019-03-10T04:07:36.770Z,70.20
2019-03-10T04:08:25.521Z,69.30
2019-03-10T04:09:14.274Z,69.90
2019-03-10T04:10:03.175Z,68.50
2019-03-10T04:10:51.818Z,68.60
2019-03-10T04:11:40.491Z,70.00
2019-03-10T04:12:29.107Z,68.10
2019-03-10T04:13:17.843Z,68.20
2019-03-10T04:14:06.523Z,69.70
2019-03-10T04:14:55.221Z,68.80
2019-03-10T04:15:43.875Z,68.60
2019-03-10T04:16:32.639Z,68.30
2019-03-10T04:17:22.539Z,69.30
2019-03-10T04:18:11.222Z,69.10
2019-03-10T04:18:59.935Z,68.40
2019-03-10T04:19:48.567Z,68.60
2019-03-10T04:20:37.261Z,68.60
2019-03-10T04:21:25.929Z,67.90
2019-03-10T04:22:15.191Z,69.90
2019-03-10T04:23:04.468Z,68.80
2019-03-10T04:23:53.961Z,69.60
2019-03-10T04:24:42.536Z,69.30
2019-03-10T04:25:31.480Z,68.70
2019-03-10T04:26:20.655Z,68.90
2019-03-10T04:27:09.693Z,69.20
2019-03-10T04:27:58.405Z,69.40
2019-03-10T04:28:47.409Z,68.70
2019-03-10T04:29:36.149Z,69.40
2019-03-10T04:30:24.830Z,67.40
2019-03-10T04:31:13.564Z,67.10
2019-03-10T04:32:02.730Z,68.70
2019-03-10T04:32:51.248Z,69.60
2019-03-10T04:33:40.217Z,69.70
2019-03-10T04:34:29.436Z,68.40
2019-03-10T04:35:17.917Z,68.00
2019-03-10T04:36:06.689Z,69.00
2019-03-10T04:36:55.711Z,67.80
2019-03-10T04:37:44.714Z,68.00
2019-03-10T04:38:33.422Z,68.50
2019-03-10T04:39:22.741Z,68.70
2019-03-10T04:40:12.735Z,68.40
2019-03-10T04:41:02.483Z,67.20
2019-03-10T04:41:52.583Z,68.30
2019-03-10T04:42:41.821Z,67.90
2019-03-10T04:43:30.440Z,69.00
2019-03-10T04:44:19.538Z,68.90
2019-03-10T04:45:08.559Z,67.00
2019-03-10T04:45:57.981Z,66.80
2019-03-10T04:46:47.030Z,67.80
2019-03-10T04:47:36.608Z,68.10
2019-03-10T04:48:26.126Z,67.40
2019-03-10T04:49:14.897Z,67.60
2019-03-10T04:50:03.687Z,68.10
2019-03-10T04:50:52.648Z,66.70
2019-03-10T04:51:41.818Z,66.90
2019-03-10T04:52:31.050Z,67.40
2019-03-10T04:53:20.469Z,67.60
2019-03-10T04:54:09.263Z,68.20
2019-03-10T04:54:59.697Z,67.80
2019-03-10T04:55:48.436Z,66.60
2019-03-10T04:56:37.442Z,67.30
2019-03-10T04:57:26.692Z,67.20
2019-03-10T04:58:15.632Z,67.50
2019-03-10T04:59:04.189Z,68.60
2019-03-10T04:59:54.676Z,67.90
2019-03-10T05:00:43.849Z,67.40
2019-03-10T05:01:33.066Z,67.70
2019-03-10T05:02:24.869Z,66.90
2019-03-10T05:03:13.723Z,66.40
2019-03-10T05:04:02.519Z,66.80
2019-03-10T05:04:51.417Z,67.10
2019-03-10T05:05:40.438Z,67.60
2019-03-10T05:06:29.247Z,68.40
2019-03-10T05:07:17.859Z,68.50
2019-03-10T05:08:06.528Z,68.90
2019-03-10T05:08:55.767Z,67.70
2019-03-10T05:09:45.579Z,67.00
2019-03-10T05:10:34.233Z,66.80
2019-03-10T05:11:22.650Z,67.10
2019-03-10T05:12:11.941Z,67.80
2019-03-10T05:13:00.686Z,66.20
2019-03-10T05:13:49.435Z,66.10
2019-03-10T05:14:38.946Z,66.20
2019-03-10T05:15:27.547Z,64.90
2019-03-10T05:16:16.774Z,65.70
2019-03-10T05:17:05.696Z,65.10
2019-03-10T05:17:54.550Z,66.10
2019-03-10T05:18:43.430Z,66.30
2019-03-10T05:19:33.557Z,65.90
2019-03-10T05:20:22.912Z,65.80
2019-03-10T05:21:11.602Z,65.90
2019-03-10T05:22:01.772Z,65.50
2019-03-10T05:22:50.749Z,66.20
2019-03-10T05:23:39.740Z,67.70
2019-03-10T05:24:28.613Z,66.70
2019-03-10T05:25:17.770Z,66.20
2019-03-10T05:26:06.396Z,66.20
2019-03-10T05:26:54.857Z,65.60
2019-03-10T05:27:43.672Z,65.40
2019-03-10T05:28:32.176Z,66.60
2019-03-10T05:29:20.894Z,67.90
2019-03-10T05:30:10.194Z,67.10
2019-03-10T05:30:58.828Z,66.70
2019-03-10T05:31:47.552Z,65.80
2019-03-10T05:32:36.419Z,64.60
2019-03-10T05:36:47.312Z,64.80
2019-03-10T05:37:36.695Z,65.30
2019-03-10T05:38:26.972Z,66.60
2019-03-10T05:39:16.900Z,66.60
2019-03-10T05:40:06.140Z,66.00
2019-03-10T05:40:54.875Z,65.90
2019-03-10T05:41:43.885Z,65.70
2019-03-10T05:42:32.770Z,66.00
2019-03-10T05:43:21.553Z,66.60
2019-03-10T05:44:10.192Z,66.40
2019-03-10T05:44:58.960Z,65.50
2019-03-10T05:45:47.873Z,66.40
2019-03-10T05:46:36.697Z,66.30
2019-03-10T05:47:25.786Z,66.70
2019-03-10T05:48:14.696Z,67.60
2019-03-10T05:49:04.267Z,67.60
2019-03-10T05:49:53.520Z,67.70
2019-03-10T05:50:42.899Z,67.80
2019-03-10T05:51:31.853Z,67.50
2019-03-10T05:52:24.800Z,67.10
2019-03-10T05:53:13.568Z,68.00
2019-03-10T05:54:03.086Z,67.70
2019-03-10T05:54:52.217Z,66.70
2019-03-10T05:55:42.422Z,66.70
2019-03-10T05:56:31.448Z,66.60
2019-03-10T05:57:20.375Z,74.50
2019-03-10T05:58:08.948Z,70.40
2019-03-10T05:58:57.611Z,70.10
2019-03-10T05:59:46.718Z,68.40
2019-03-10T06:00:42.492Z,69.10
2019-03-10T06:01:26.990Z,66.60
2019-03-10T06:02:16.403Z,67.10
2019-03-10T06:03:05.229Z,65.80
2019-03-10T06:03:53.917Z,67.00
2019-03-10T06:04:42.877Z,68.10
2019-03-10T06:05:31.641Z,68.50
2019-03-10T06:06:20.429Z,69.50
2019-03-10T06:07:08.833Z,69.60
2019-03-10T06:07:57.596Z,69.40
2019-03-10T06:08:46.763Z,67.80
2019-03-10T06:09:35.511Z,68.10
2019-03-10T06:10:24.437Z,68.70
2019-03-10T06:11:12.795Z,68.30
2019-03-10T06:12:01.622Z,68.30
2019-03-10T06:12:50.205Z,69.10
2019-03-10T06:13:38.813Z,70.80
2019-03-10T06:14:27.458Z,69.60
2019-03-10T06:15:15.856Z,69.80
2019-03-10T06:16:04.576Z,70.10
2019-03-10T06:16:53.669Z,68.30
2019-03-10T06:17:42.721Z,68.50
2019-03-10T06:18:31.786Z,69.50
2019-03-10T06:19:20.493Z,69.70
2019-03-10T06:20:09.135Z,69.80
2019-03-10T06:20:57.741Z,69.40
2019-03-10T06:21:47.435Z,69.70
2019-03-10T06:22:36.435Z,69.80
2019-03-10T06:23:25.281Z,70.30
2019-03-10T06:24:13.881Z,70.40
2019-03-10T06:25:02.510Z,70.40
2019-03-10T06:25:51.149Z,69.80
2019-03-10T06:26:40.160Z,70.00
2019-03-10T06:27:28.750Z,70.40
2019-03-10T06:28:17.722Z,70.20
2019-03-10T06:29:06.832Z,70.40
2019-03-10T06:29:55.477Z,69.30
2019-03-10T06:30:44.491Z,68.40
2019-03-10T06:31:33.113Z,68.70
2019-03-10T06:32:21.870Z,68.90
2019-03-10T06:33:11.682Z,68.50
2019-03-10T06:34:00.442Z,68.60
2019-03-10T06:34:49.251Z,69.30
2019-03-10T06:35:37.762Z,69.70
2019-03-10T06:36:26.762Z,69.50
2019-03-10T06:37:15.504Z,68.80
2019-03-10T06:38:04.433Z,69.40
2019-03-10T06:38:55.091Z,69.10
2019-03-10T06:39:44.166Z,69.60
2019-03-10T06:40:32.825Z,69.40
2019-03-10T06:41:22.088Z,69.50
2019-03-10T06:42:10.685Z,69.20
2019-03-10T06:43:00.075Z,68.90
2019-03-10T06:43:50.292Z,69.00
2019-03-10T06:44:39.948Z,68.90
2019-03-10T06:45:29.243Z,69.70
2019-03-10T06:46:18.234Z,70.00
2019-03-10T06:47:06.867Z,70.00
2019-03-10T06:47:55.548Z,69.80
2019-03-10T06:48:44.201Z,69.40
2019-03-10T06:49:32.872Z,69.90
2019-03-10T06:50:21.740Z,70.10
2019-03-10T06:51:10.574Z,69.90
2019-03-10T06:51:59.425Z,69.00
2019-03-10T06:52:47.912Z,68.90
2019-03-10T06:53:36.509Z,68.90
2019-03-10T06:54:25.189Z,69.50
2019-03-10T06:55:13.877Z,70.20
2019-03-10T06:56:02.480Z,70.20
2019-03-10T06:56:51.221Z,69.80
2019-03-10T06:57:40.249Z,69.40
2019-03-10T06:58:28.854Z,69.70
2019-03-10T06:59:17.723Z,69.90
2019-03-10T07:00:06.867Z,69.40
2019-03-10T07:00:55.645Z,68.90
2019-03-10T07:01:44.234Z,69.50
2019-03-10T07:02:34.238Z,67.00
2019-03-10T07:03:22.785Z,68.70
2019-03-10T07:04:11.771Z,68.10
2019-03-10T07:05:00.652Z,68.40
2019-03-10T07:05:49.180Z,69.30
2019-03-10T07:06:38.088Z,69.40
2019-03-10T07:07:27.994Z,68.60
2019-03-10T07:08:16.526Z,67.90
2019-03-10T07:09:05.254Z,66.90
2019-03-10T07:09:54.136Z,67.70
2019-03-10T07:10:43.897Z,67.30
2019-03-10T07:11:32.705Z,67.60
2019-03-10T07:12:21.563Z,67.00
2019-03-10T07:13:10.262Z,67.00
2019-03-10T07:13:58.918Z,67.50
2019-03-10T07:14:47.883Z,67.60
2019-03-10T07:15:36.553Z,66.60
2019-03-10T07:16:25.847Z,67.70
2019-03-10T07:17:15.652Z,66.20
2019-03-10T07:18:05.735Z,66.60
2019-03-10T07:18:54.837Z,65.20
2019-03-10T07:19:43.512Z,64.80
2019-03-10T07:20:32.452Z,64.70
2019-03-10T07:21:21.403Z,63.70
2019-03-10T07:22:10.178Z,63.50
2019-03-10T07:22:58.864Z,64.30
2019-03-10T07:23:47.423Z,65.30
2019-03-10T07:24:35.933Z,65.40
2019-03-10T07:25:24.663Z,65.50
2019-03-10T07:26:13.234Z,65.80
2019-03-10T07:27:02.364Z,65.90
2019-03-10T07:27:50.949Z,66.60
2019-03-10T07:28:39.949Z,67.10
2019-03-10T07:29:28.646Z,67.30
2019-03-10T07:30:17.530Z,67.50
2019-03-10T07:31:05.917Z,67.50
2019-03-10T07:31:54.962Z,67.60
2019-03-10T07:32:43.549Z,66.60
2019-03-10T07:33:32.233Z,67.10
2019-03-10T07:34:20.483Z,65.80
2019-03-10T07:35:09.162Z,67.00
2019-03-10T07:35:57.820Z,67.30
2019-03-10T07:36:46.532Z,67.40
2019-03-10T07:37:35.451Z,67.00
2019-03-10T07:38:24.241Z,65.80
2019-03-10T07:39:13.790Z,66.10
2019-03-10T07:40:03.055Z,67.00
2019-03-10T07:40:52.688Z,67.40
2019-03-10T07:41:41.570Z,67.90
2019-03-10T07:42:30.260Z,68.10
2019-03-10T07:43:19.313Z,67.90
2019-03-10T07:44:32.792Z,68.20
2019-03-10T07:45:22.288Z,67.40
2019-03-10T07:46:11.734Z,67.90
2019-03-10T07:47:00.781Z,68.10
2019-03-10T07:47:49.645Z,68.30
2019-03-10T07:48:38.407Z,68.50
2019-03-10T07:49:27.239Z,68.10
2019-03-10T07:50:16.588Z,68.00
2019-03-10T07:51:05.953Z,68.20
2019-03-10T07:51:54.744Z,68.00
2019-03-10T07:52:43.649Z,68.30
2019-03-10T07:53:32.862Z,68.20
2019-03-10T07:54:21.827Z,68.30
2019-03-10T07:55:10.946Z,68.30
2019-03-10T07:56:01.451Z,68.10
2019-03-10T07:56:50.189Z,67.10
2019-03-10T07:57:39.789Z,66.60
2019-03-10T07:58:28.902Z,66.60
2019-03-10T07:59:18.242Z,67.40
2019-03-10T08:00:07.428Z,68.00
2019-03-10T08:00:56.422Z,67.40
2019-03-10T08:01:45.466Z,66.80
2019-03-10T08:02:34.249Z,67.40
2019-03-10T08:03:23.428Z,67.70
2019-03-10T08:04:12.536Z,68.00
2019-03-10T08:05:02.103Z,68.80
2019-03-10T08:05:51.764Z,68.00
2019-03-10T08:06:40.677Z,67.30
2019-03-10T08:07:29.781Z,67.80
2019-03-10T08:08:18.453Z,67.60
2019-03-10T08:09:07.272Z,66.80
2019-03-10T08:09:56.628Z,67.10
2019-03-10T08:10:45.743Z,67.40
2019-03-10T08:11:35.016Z,66.80
2019-03-10T08:12:24.211Z,67.50
2019-03-10T08:13:14.931Z,67.80
2019-03-10T08:14:04.273Z,67.90
2019-03-10T08:14:53.429Z,67.80
2019-03-10T08:15:42.303Z,67.70
2019-03-10T08:16:31.422Z,67.50
2019-03-10T08:17:20.246Z,67.20
2019-03-10T08:18:09.238Z,67.70
2019-03-10T08:18:58.451Z,68.00
2019-03-10T08:19:47.223Z,67.70
2019-03-10T08:20:36.451Z,67.70
2019-03-10T08:21:25.640Z,67.90
2019-03-10T08:22:14.423Z,67.60
2019-03-10T08:23:03.217Z,67.40
2019-03-10T08:23:52.141Z,68.20
2019-03-10T08:24:41.183Z,68.00
2019-03-10T08:25:30.123Z,68.10
2019-03-10T08:26:19.248Z,68.20
2019-03-10T08:27:08.415Z,67.10
2019-03-10T08:28:01.424Z,66.80
2019-03-10T08:28:48.423Z,67.60
2019-03-10T08:29:37.142Z,67.50
2019-03-10T08:30:26.177Z,67.80
2019-03-10T08:31:14.850Z,66.30
2019-03-10T08:33:12.650Z,65.90
2019-03-10T08:34:01.658Z,66.70
2019-03-10T08:34:50.210Z,66.10
2019-03-10T08:35:39.113Z,67.50
2019-03-10T08:36:27.857Z,67.80
2019-03-10T08:37:16.863Z,68.10
2019-03-10T08:38:05.747Z,67.80
2019-03-10T08:38:55.000Z,67.70
2019-03-10T08:39:44.351Z,68.00
2019-03-10T08:40:32.901Z,67.90
2019-03-10T08:41:23.211Z,67.60
2019-03-10T08:42:19.875Z,67.80
2019-03-10T08:43:02.916Z,67.80
2019-03-10T08:43:51.588Z,68.50
2019-03-10T08:44:40.412Z,67.50
2019-03-10T08:45:28.846Z,66.70
2019-03-10T08:46:17.918Z,68.20
2019-03-10T08:47:06.863Z,67.50
2019-03-10T08:47:58.087Z,67.30
2019-03-10T08:48:47.235Z,67.20
2019-03-10T08:49:44.789Z,68.00
2019-03-10T08:50:26.825Z,68.20
2019-03-10T08:51:15.829Z,68.00
2019-03-10T08:52:04.872Z,66.70
2019-03-10T08:52:53.761Z,68.30
2019-03-10T08:53:42.119Z,68.40
2019-03-10T08:54:30.909Z,68.70
2019-03-10T08:55:19.797Z,68.70
2019-03-10T08:56:08.641Z,67.50
2019-03-10T08:56:57.446Z,65.20
2019-03-10T08:57:46.419Z,65.90
2019-03-10T08:58:35.432Z,67.70
2019-03-10T08:59:24.409Z,67.10
2019-03-10T09:00:13.198Z,66.20
2019-03-10T09:01:02.293Z,67.10
2019-03-10T09:01:51.257Z,68.10
2019-03-10T09:02:40.421Z,67.70
2019-03-10T09:03:29.480Z,66.20
2019-03-10T09:04:18.414Z,66.90
2019-03-10T09:05:07.853Z,67.10
2019-03-10T09:05:56.734Z,68.10
2019-03-10T09:06:45.554Z,68.20
2019-03-10T09:07:34.660Z,66.80
2019-03-10T09:08:24.423Z,65.50
2019-03-10T09:09:13.220Z,66.80
2019-03-10T09:10:02.425Z,67.70
2019-03-10T09:10:51.559Z,66.80
2019-03-10T09:11:40.398Z,65.20
2019-03-10T09:12:30.744Z,65.90
2019-03-10T09:13:20.280Z,64.60
2019-03-10T09:14:09.533Z,65.00
2019-03-10T09:14:58.438Z,66.50
2019-03-10T09:15:46.890Z,66.00
2019-03-10T09:16:39.177Z,65.80
2019-03-10T09:17:27.914Z,65.20
2019-03-10T09:18:16.975Z,67.10
2019-03-10T09:19:05.819Z,65.80
2019-03-10T09:19:54.867Z,65.60
2019-03-10T09:20:43.744Z,66.90
2019-03-10T09:21:33.172Z,67.30
2019-03-10T09:22:22.229Z,66.60
2019-03-10T09:23:11.455Z,66.60
2019-03-10T09:24:08.410Z,66.60
2019-03-10T09:24:57.449Z,65.10
2019-03-10T09:25:46.050Z,66.60
2019-03-10T09:26:35.321Z,66.30
2019-03-10T09:27:24.196Z,65.80
2019-03-10T09:28:12.887Z,66.50
2019-03-10T09:29:01.683Z,67.30
2019-03-10T09:29:50.549Z,68.00
2019-03-10T09:30:39.434Z,67.80
2019-03-10T09:31:28.251Z,66.30
2019-03-10T09:32:16.887Z,65.40
2019-03-10T09:33:05.604Z,65.70
2019-03-10T09:33:54.442Z,65.50
2019-03-10T09:34:43.073Z,66.20
2019-03-10T09:35:31.965Z,67.60
2019-03-10T09:36:21.442Z,67.00
2019-03-10T09:37:10.441Z,67.30
2019-03-10T09:37:59.443Z,67.10
2019-03-10T09:38:48.431Z,67.80
2019-03-10T09:39:37.688Z,67.20
2019-03-10T09:40:26.774Z,66.30
2019-03-10T09:41:15.985Z,66.50
2019-03-10T09:42:05.431Z,65.80
2019-03-10T09:42:54.204Z,66.40
2019-03-10T09:43:43.303Z,67.30
2019-03-10T09:44:31.913Z,67.20
2019-03-10T09:45:21.038Z,67.00
2019-03-10T09:46:09.803Z,67.10
2019-03-10T09:46:58.936Z,67.60
2019-03-10T09:47:47.972Z,68.10
2019-03-10T09:48:37.453Z,68.50
2019-03-10T09:49:25.979Z,68.60
2019-03-10T09:50:14.759Z,67.20
2019-03-10T09:51:03.784Z,66.60
2019-03-10T09:51:52.765Z,66.20
2019-03-10T09:52:41.828Z,66.80
2019-03-10T09:53:31.251Z,66.30
2019-03-10T09:54:20.441Z,66.00
2019-03-10T09:55:09.438Z,66.00
2019-03-10T09:55:58.291Z,64.50
2019-03-10T09:56:46.936Z,65.30
2019-03-10T09:57:36.175Z,67.10
2019-03-10T09:58:25.433Z,68.10
2019-03-10T09:59:17.553Z,67.00
2019-03-10T10:00:07.007Z,66.00
2019-03-10T10:00:55.858Z,65.20
2019-03-10T10:01:45.205Z,65.10
2019-03-10T10:02:34.371Z,65.20
2019-03-10T10:03:23.555Z,65.10
2019-03-10T10:04:12.735Z,65.00
2019-03-10T10:05:02.462Z,64.80
2019-03-10T10:06:42.447Z,64.70
2019-03-10T10:07:31.502Z,65.20
2019-03-10T10:08:20.582Z,65.50
2019-03-10T10:09:09.677Z,65.90
2019-03-10T10:09:59.101Z,65.90
2019-03-10T10:10:47.817Z,66.00
2019-03-10T10:11:36.711Z,66.00
2019-03-10T10:12:25.939Z,66.20
2019-03-10T10:13:15.423Z,65.80
2019-03-10T10:14:04.519Z,66.40
2019-03-10T10:14:53.385Z,65.80
2019-03-10T10:15:42.443Z,65.80
2019-03-10T10:16:31.517Z,66.10
2019-03-10T10:17:20.531Z,66.20
2019-03-10T10:18:09.597Z,66.40
2019-03-10T10:19:48.662Z,66.70
2019-03-10T10:20:37.541Z,65.60
2019-03-10T10:21:26.516Z,65.00
2019-03-10T10:22:15.724Z,65.50
2019-03-10T10:23:07.197Z,65.50
2019-03-10T10:23:55.215Z,65.70
2019-03-10T10:24:44.490Z,66.20
2019-03-10T10:25:33.417Z,66.30
2019-03-10T10:26:22.239Z,65.80
2019-03-10T10:27:10.925Z,65.50
2019-03-10T10:28:01.859Z,67.40
2019-03-10T17:30:07.812Z,77.20
2019-03-10T17:30:56.787Z,77.80
2019-03-10T17:31:45.893Z,77.20
2019-03-10T17:32:37.119Z,77.10
2019-03-10T17:33:26.247Z,76.90
2019-03-10T17:34:14.908Z,76.60
2019-03-10T17:35:04.135Z,77.10
2019-03-10T17:35:53.285Z,77.30
2019-03-10T17:36:41.911Z,77.20
2019-03-10T17:37:32.182Z,76.40
2019-03-10T17:38:20.822Z,76.70
2019-03-10T17:39:10.126Z,77.40
2019-03-10T17:39:59.381Z,77.00
2019-03-10T17:40:48.522Z,76.70
2019-03-10T17:41:39.144Z,76.80
2019-03-10T17:42:28.166Z,76.50
2019-03-10T17:43:17.088Z,76.20
2019-03-10T17:44:06.268Z,76.70
2019-03-10T17:44:55.227Z,77.00
2019-03-10T17:45:44.415Z,77.40
2019-03-10T17:46:33.215Z,76.70
2019-03-10T17:47:21.875Z,76.80
2019-03-10T17:48:13.012Z,76.70
2019-03-10T17:49:01.685Z,76.90
2019-03-10T17:49:50.414Z,76.70
2019-03-10T17:50:39.158Z,76.90
2019-03-10T17:51:28.211Z,77.00
2019-03-10T17:52:16.840Z,76.60
2019-03-10T17:53:07.452Z,76.60
2019-03-10T17:53:56.611Z,76.90
2019-03-10T17:54:45.133Z,77.10
2019-03-10T17:55:34.182Z,77.00
2019-03-10T17:56:23.119Z,76.80
2019-03-10T17:57:11.868Z,76.40
2019-03-10T17:58:00.743Z,76.40
2019-03-10T17:58:49.802Z,76.40
2019-03-10T17:59:38.684Z,76.20
2019-03-10T18:00:27.699Z,76.20
2019-03-10T18:01:16.637Z,75.80
2019-03-10T18:02:09.218Z,75.50
2019-03-10T18:02:56.538Z,75.70
2019-03-10T18:03:45.231Z,76.00
2019-03-10T18:04:34.577Z,76.10
2019-03-10T18:05:23.937Z,76.40
2019-03-10T18:06:13.943Z,76.60
2019-03-10T18:07:02.774Z,76.10
2019-03-10T18:07:51.796Z,76.50
2019-03-10T18:08:40.786Z,76.00
2019-03-10T18:09:29.992Z,76.40
2019-03-10T18:10:19.206Z,76.80
2019-03-10T18:11:07.818Z,76.40
2019-03-10T18:11:56.905Z,76.20
2019-03-10T18:12:46.164Z,76.40
2019-03-10T18:13:34.861Z,76.50
2019-03-10T18:14:23.423Z,76.20
2019-03-10T18:15:12.410Z,76.00
2019-03-10T18:16:01.260Z,76.20
2019-03-10T18:16:50.173Z,75.90
2019-03-10T18:17:38.924Z,76.40
2019-03-10T18:18:27.971Z,76.70
2019-03-10T18:19:16.915Z,76.70
2019-03-10T18:20:05.862Z,76.40
2019-03-10T18:20:54.617Z,76.10
2019-03-10T18:21:43.831Z,75.50
2019-03-10T18:22:32.699Z,75.80
2019-03-10T18:23:21.502Z,76.60
2019-03-10T18:24:10.620Z,76.40
2019-03-10T18:24:59.389Z,76.90
2019-03-10T18:25:48.472Z,76.90
2019-03-10T18:26:37.202Z,77.00
2019-03-10T18:27:26.136Z,76.90
2019-03-10T18:28:14.836Z,77.10
2019-03-10T18:29:03.882Z,77.00
2019-03-10T18:29:52.716Z,76.50
2019-03-10T18:30:41.398Z,76.90
2019-03-10T18:31:30.156Z,76.90
2019-03-10T18:32:19.186Z,76.80
2019-03-10T18:33:08.184Z,76.70
2019-03-10T18:33:56.866Z,76.90
2019-03-10T18:34:45.791Z,76.90
2019-03-10T18:35:34.979Z,77.40
2019-03-10T18:36:24.202Z,77.00
2019-03-10T18:37:12.925Z,76.70
2019-03-10T18:38:01.616Z,76.90
2019-03-10T18:38:50.630Z,76.90
2019-03-10T18:39:39.220Z,76.30
2019-03-10T18:40:28.254Z,76.00
2019-03-10T18:41:17.407Z,76.30
2019-03-10T18:42:06.073Z,76.60
2019-03-10T18:42:54.820Z,76.20
2019-03-10T18:43:43.989Z,76.40
2019-03-10T18:44:33.158Z,76.60
2019-03-10T18:45:21.845Z,75.70
2019-03-10T18:46:11.258Z,76.00
2019-03-10T18:47:00.181Z,76.20
2019-03-10T18:47:49.253Z,76.50
2019-03-10T18:48:37.843Z,76.50
2019-03-10T18:49:26.557Z,76.50
2019-03-10T18:50:15.848Z,76.00
2019-03-10T18:51:04.899Z,76.10
2019-03-10T18:51:53.770Z,75.80
2019-03-10T18:52:42.723Z,75.70
2019-03-10T18:53:31.408Z,76.00
2019-03-10T18:54:20.191Z,75.10
2019-03-10T18:55:08.951Z,75.00
2019-03-10T18:55:58.194Z,74.90
2019-03-10T18:56:47.184Z,75.60
2019-03-10T18:57:35.876Z,75.50
2019-03-10T18:58:24.943Z,76.00
2019-03-10T18:59:13.554Z,75.90
2019-03-10T19:00:02.508Z,76.10
2019-03-10T19:00:52.460Z,76.30
2019-03-10T19:01:42.182Z,76.40
2019-03-10T19:02:31.079Z,76.20
2019-03-10T19:03:21.291Z,76.10
2019-03-10T19:04:10.623Z,76.40
2019-03-10T19:04:59.409Z,76.30
2019-03-10T19:05:48.207Z,74.60
2019-03-10T19:06:36.799Z,75.80
2019-03-10T19:07:26.380Z,76.00
2019-03-10T19:08:15.207Z,75.80
2019-03-10T19:09:04.206Z,76.00
2019-03-10T19:09:54.279Z,76.10
2019-03-10T19:10:42.933Z,76.40
2019-03-10T19:11:31.779Z,76.50
2019-03-10T19:12:20.677Z,75.20
2019-03-10T19:13:09.648Z,75.00
2019-03-10T19:13:58.198Z,75.30
2019-03-10T19:14:47.426Z,76.10
2019-03-10T19:15:35.834Z,77.10
2019-03-10T19:16:24.802Z,76.50
2019-03-10T19:17:13.625Z,76.60
2019-03-10T19:18:03.585Z,76.50